Terminal Aerodrome Forecast
Issued by NWS Bismarck, ND

Home | Current Version | Previous Version | Graphics & Text | Print | Product List | Glossary On
Versions: 1 2 3 4 5 6 7 8 9 10 11 12 13 14 15 16 17 18
532
FTUS43 KBIS 051008 AAB
TAFBIS
TAF AMD
KBIS 051008Z 0510/0606 31004KT 2SM -SN BR SCT009 OVC025
     FM051400 32006KT P6SM BKN040
     FM051800 31010KT P6SM SCT120
     FM060200 25004KT P6SM SCT250=

USA.gov is the U.S. government's official web portal to all federal, state and local government web resources and services.